»·PEaware :: N6870P KAPA-KCYS

N6870P :: KAPA-KCYS

FLIGHT INFORMATION

Flight Status: Arrived
Operator: Privately registered:
United States
More flights under this callsign
Pilot: Larry J. (31147)
Aircraft: PIPER PA-24 COMMANCHE
(PA24)
More flights by this aircraft type
Origin: KAPA Centennial
United States
Destination: KCYS Cheyenne
United States
More flights between these airports :: More routes between these airports
Route: +YELLO4 GLL KROMM ZORIS KCYS
File this flight plan on PilotEdge
Remarks:
Altitude:
(Current/Filed)
10,000ft
Speed:
(Current/Filed)
160kts
Departed: 06-Sep-20 12:01 PM
Arrived: 06-Sep-20 12:48 PM
Distance/Time
Traveled:
95nm/0:46
Distance/Time
To Go:
Arrived

Flight Plot

Page will automatically refresh every two minutes.

Flight plan parsing failed; only flown route is shown


Map Options




Map Legend


Flown Route
Filed Route
Departure Airport
Arrival Airport
Navaid (VOR, NDB)
Fix

Horizontal Profiles

Position Reports

Time Latitude Longitude Heading Altitude Ground
Speed
06-Sep-20 11:12 39.570927 -104.848357 179 5886ft 0kts
06-Sep-20 11:13 39.570927 -104.848357 179 5886ft 0kts
06-Sep-20 11:14 39.570927 -104.848357 179 5886ft 0kts
06-Sep-20 11:15 39.570927 -104.848357 179 5886ft 0kts
06-Sep-20 11:16 39.570927 -104.848357 179 5886ft 0kts
06-Sep-20 11:17 39.570927 -104.848357 179 5886ft 0kts
06-Sep-20 11:18 39.570927 -104.848357 179 5886ft 0kts
06-Sep-20 11:19 39.570927 -104.848357 179 5886ft 0kts
06-Sep-20 11:20 39.570927 -104.848357 179 5886ft 0kts
06-Sep-20 11:21 39.570927 -104.848357 179 5886ft 0kts
06-Sep-20 11:22 39.570927 -104.848357 179 5886ft 0kts
06-Sep-20 11:23 39.570927 -104.848357 179 5886ft 0kts
06-Sep-20 11:24 39.570927 -104.848357 179 5886ft 0kts
06-Sep-20 11:25 39.570927 -104.848357 179 5886ft 0kts
06-Sep-20 11:26 39.570927 -104.848357 179 5886ft 0kts
06-Sep-20 11:27 39.570927 -104.848357 179 5886ft 0kts
06-Sep-20 11:28 39.570927 -104.848357 179 5886ft 0kts
06-Sep-20 11:29 39.570927 -104.848357 179 5886ft 0kts
06-Sep-20 11:30 39.570927 -104.848357 179 5886ft 0kts
06-Sep-20 11:31 39.570927 -104.848357 179 5886ft 0kts
06-Sep-20 11:32 39.570927 -104.848357 179 5886ft 0kts
06-Sep-20 11:33 39.570927 -104.848357 179 5886ft 0kts
06-Sep-20 11:34 39.570927 -104.848357 179 5886ft 0kts
06-Sep-20 11:35 39.570927 -104.848357 179 5886ft 0kts
06-Sep-20 11:36 39.570927 -104.848357 179 5886ft 0kts
06-Sep-20 11:37 39.570927 -104.848357 179 5886ft 0kts
06-Sep-20 11:38 39.570927 -104.848357 179 5886ft 0kts
06-Sep-20 11:39 39.570927 -104.848357 179 5886ft 0kts
06-Sep-20 11:40 39.570927 -104.848357 179 5886ft 0kts
06-Sep-20 11:41 39.571786 -104.848583 358 5886ft 6kts
06-Sep-20 11:42 39.573370 -104.847204 109 5886ft 5kts
06-Sep-20 11:44 39.571884 -104.842263 112 5886ft 19kts
06-Sep-20 11:45 39.569624 -104.834644 110 5886ft 22kts
06-Sep-20 11:46 39.569036 -104.831887 134 5886ft 0kts
06-Sep-20 11:47 39.568951 -104.831677 200 5886ft 0kts
06-Sep-20 11:48 39.568877 -104.831708 197 5886ft 0kts
06-Sep-20 11:49 39.568877 -104.831708 197 5886ft 0kts
06-Sep-20 11:50 39.568877 -104.831708 197 5886ft 0kts
06-Sep-20 11:51 39.568877 -104.831708 197 5886ft 0kts
06-Sep-20 11:52 39.568877 -104.831708 197 5886ft 0kts
06-Sep-20 11:53 39.568877 -104.831708 197 5886ft 0kts
06-Sep-20 11:54 39.568877 -104.831708 197 5886ft 0kts
06-Sep-20 11:55 39.568877 -104.831708 197 5886ft 0kts
06-Sep-20 11:56 39.568877 -104.831708 197 5886ft 0kts
06-Sep-20 11:57 39.568877 -104.831708 197 5886ft 0kts
06-Sep-20 11:58 39.568877 -104.831709 197 5886ft 0kts
06-Sep-20 11:59 39.568941 -104.832469 292 5886ft 0kts
06-Sep-20 12:00 39.569297 -104.833350 120 5886ft 0kts
06-Sep-20 12:01 39.570007 -104.838527 292 5886ft 85kts
06-Sep-20 12:01 39.576597 -104.867476 275 6794ft 106kts
06-Sep-20 12:03 39.612948 -104.883641 357 7514ft 152kts
06-Sep-20 12:04 39.649728 -104.884423 357 8111ft 156kts
06-Sep-20 12:04 39.658753 -104.884626 357 8254ft 156kts
06-Sep-20 12:05 39.669426 -104.884913 357 8425ft 156kts
06-Sep-20 12:06 39.679962 -104.885120 359 8593ft 156kts
06-Sep-20 12:07 39.689152 -104.881703 27 8722ft 158kts
06-Sep-20 12:08 39.696914 -104.874150 42 8866ft 158kts
06-Sep-20 12:09 39.701838 -104.864625 65 8988ft 158kts
06-Sep-20 12:10 39.706379 -104.852779 60 9155ft 157kts
06-Sep-20 12:11 39.711166 -104.841140 60 9315ft 157kts
06-Sep-20 12:12 39.716014 -104.830084 50 9473ft 156kts
06-Sep-20 12:13 39.723528 -104.823935 15 9640ft 154kts
06-Sep-20 12:14 39.738793 -104.811819 38 9918ft 155kts
06-Sep-20 12:15 39.774521 -104.773116 38 10001ft 177kts
06-Sep-20 12:16 39.811748 -104.729816 65 9980ft 182kts
06-Sep-20 12:17 39.840492 -104.676371 52 9999ft 181kts
06-Sep-20 12:18 39.886112 -104.656255 6 9999ft 182kts
06-Sep-20 12:19 39.936302 -104.653744 6 9999ft 182kts
06-Sep-20 12:20 39.986559 -104.645089 6 9999ft 182kts
06-Sep-20 12:21 40.036599 -104.650718 356 9998ft 181kts
06-Sep-20 12:22 40.086844 -104.649104 3 9998ft 181kts
06-Sep-20 12:23 40.137773 -104.641607 6 9999ft 181kts
06-Sep-20 12:24 40.187449 -104.631577 8 9999ft 181kts
06-Sep-20 12:25 40.236816 -104.619132 8 9999ft 181kts
06-Sep-20 12:26 40.286418 -104.607904 9 9999ft 181kts
06-Sep-20 12:27 40.335911 -104.596056 9 9999ft 181kts
06-Sep-20 12:28 40.385277 -104.583892 9 9999ft 181kts
06-Sep-20 12:29 40.435580 -104.571415 9 9738ft 190kts
06-Sep-20 12:30 40.486063 -104.558750 9 9724ft 182kts
06-Sep-20 12:31 40.535710 -104.546351 9 9724ft 181kts
06-Sep-20 12:32 40.585040 -104.544524 343 9727ft 181kts
06-Sep-20 12:33 40.634367 -104.557068 348 9724ft 181kts
06-Sep-20 12:34 40.684012 -104.568202 350 9724ft 181kts
06-Sep-20 12:35 40.733674 -104.578053 349 9724ft 181kts
06-Sep-20 12:36 40.783449 -104.588478 349 9724ft 181kts
06-Sep-20 12:37 40.833485 -104.598949 350 9556ft 188kts
06-Sep-20 12:38 40.886100 -104.610054 350 9057ft 193kts
06-Sep-20 12:39 40.938878 -104.621239 349 8723ft 186kts
06-Sep-20 12:40 40.989061 -104.631840 349 8724ft 181kts
06-Sep-20 12:41 41.032543 -104.659250 316 8723ft 181kts
06-Sep-20 12:42 41.066723 -104.702709 313 8494ft 141kts
06-Sep-20 12:43 41.091932 -104.735397 313 7800ft 113kts
06-Sep-20 12:44 41.112731 -104.762514 315 7235ft 108kts
06-Sep-20 12:45 41.133330 -104.789603 314 6670ft 102kts
06-Sep-20 12:46 41.152789 -104.815000 312 6144ft 79kts
06-Sep-20 12:47 41.155907 -104.821077 168 6142ft 3kts

Navigation Log

Ident Type
Flight plan parsing failed, navigation log unavailable